Ana Sayfa
METAR-TAF:

METAR-TAF

Havaalanları :

Ashtabula County Airport

Ashtabula, Ohio, Amerika Birleşik Devletleri

Enlem: 41-46-46N, Boylam: 080-41-48W, yükseklik: 281 m

Güncel hava durumu gözlemi

Rapor saat 19:53 UTC de 1 saat ve 6 dakika önce yapıldı.
Rüzgar güneydan 6 kt
Sıcaklık 5°C
Nem 60%
Basınç 1025 hPa
Görüş mesafesi: 16.1 km
10000 ft yükseklikte çok bulutlu

METAR: KHZY 241953Z AUTO 19006KT 10SM OVC100 05/M02 A3028 RMK AO2 SLP263 T00501022

Saat: 15:59 (20:59 UTC)


TAF: eksik

4.000'den fazla havaalanı için hava durumu gözlemleri ve tahminleri (METAR ve TAF raporları).

Kullanılabilir istasyonlar harita üzerinde sarı ve kırmızı noktalarla gösterilir.

İstasyonun adını görmek için fareyi noktanın üzerinde gezdirin.

Sonrasında hava gözlem ve tahminlerini görmek için tıklayın.

Haritayı değiştirmek için: yaklaştırmak için siyah artı işaretli yeşil düğmeye ve uzaklaştırmak için de eksi işaretli düğmeye hızla tıklayın; bitişik haritalar için yeşil okları kullanın.


METAR-TAF: